This is the latest recevied weather packets stored in our database for station/object N4OOJ-13. If no packets are shown the sender has not sent any weather packets the latest 1 day(s).
| Time | Temp. | Humidity | Pressure | Rain* | Wind** | Luminosity | Snow |
|---|---|---|---|---|---|---|---|
| 1778014833 | 27.78° C | 46% | 1017.7 hPa | 0 mm | 1.79 m/s, 280° | - | - |
| 1778014233 | 27.78° C | 44% | 1017.5 hPa | 0 mm | 1.79 m/s, 69° | - | - |
| 1778013633 | 27.22° C | 45% | 1017.6 hPa | 0 mm | 1.79 m/s, 75° | - | - |
| 1778013032 | 27.78° C | 46% | 1017.6 hPa | 0 mm | 1.79 m/s, 155° | - | - |
| 1778012421 | 27.78° C | 45% | 1017.6 hPa | 0 mm | 2.24 m/s, 19° | - | - |
| 1778011816 | 28.89° C | 44% | 1017.9 hPa | 0 mm | 1.79 m/s, 210° | - | - |
| 1778011223 | 27.78° C | 44% | 1018 hPa | 0 mm | 1.34 m/s, 204° | - | - |
| 1778010618 | 27.78° C | 44% | 1017.9 hPa | 0 mm | 2.68 m/s, 81° | - | - |
| 1778010018 | 28.33° C | 45% | 1018 hPa | 0 mm | 1.79 m/s, 158° | - | - |
| 1778009431 | 28.33° C | 45% | 1018.5 hPa | 0 mm | 1.34 m/s, 84° | - | - |
| 1778008826 | 28.89° C | 42% | 1018.8 hPa | 0 mm | 2.24 m/s, 78° | - | - |
| 1778008221 | 30.56° C | 40% | 1018.8 hPa | 0 mm | 1.79 m/s, 272° | - | - |
| 1778007616 | 29.44° C | 43% | 1018.9 hPa | 0 mm | 1.34 m/s, 75° | - | - |
| 1778007029 | 30° C | 42% | 1018.9 hPa | 0 mm | 1.79 m/s, 23° | - | - |
| 1778006429 | 28.33° C | 44% | 1018.9 hPa | 0 mm | 1.79 m/s, 5° | - | - |
| 1778005829 | 30° C | 42% | 1018.8 hPa | 0 mm | 2.24 m/s, 210° | - | - |
| 1778005219 | 28.89° C | 45% | 1018.5 hPa | 0 mm | 1.79 m/s, 183° | - | - |
| 1778004626 | 27.22° C | 48% | 1018.7 hPa | 0 mm | 1.34 m/s, 15° | - | - |
| 1778004021 | 27.22° C | 49% | 1018.7 hPa | 0 mm | 1.34 m/s, 87° | - | - |
| 1778003415 | 27.78° C | 45% | 1018.6 hPa | 0 mm | 1.79 m/s, 83° | - | - |
| 1778002822 | 27.22° C | 48% | 1018.7 hPa | 0 mm | 1.34 m/s, 74° | - | - |
| 1778002216 | 26.11° C | 49% | 1018.8 hPa | 0 mm | 1.34 m/s, 77° | - | - |
| 1778001616 | 28.33° C | 45% | 1019 hPa | 0 mm | 1.79 m/s, 265° | - | - |
| 1778001016 | 26.11° C | 50% | 1019.3 hPa | 0 mm | 1.34 m/s, 141° | - | - |
| 1778000428 | 26.11° C | 49% | 1019.3 hPa | 0 mm | 1.34 m/s, 72° | - | - |
* Rain latest hour (hover to see other rain measurements)
** Current wind speed in m/s (hover to see current wind gust speed)